Station info - map view · info · telemetry · weather · raw · status · beacons · messages · bulletins · browse · moving · my account
Callsign, ship name or locator: Clear       
It is possible to search using wildcards (*?) after a prefix. Example: OH*
APRS station I3YBD-7 - show graphs
Map loading...
Mic-E message: En route
Location: 45°24.85' N 10°59.55' E - locator JN55LJ99CJ - show map - static map
1.4 miles South bearing 191° from Verona, Provincia di Verona, Veneto, Italy [?]
5.1 miles West bearing 264° from San Martino Buon Albergo, Provincia di Verona, Veneto, Italy
64.7 miles West bearing 269° from Venice, Provincia di Venezia, Veneto, Italy
65.8 miles North bearing 345° from Bologna, Provincia di Bologna, Emilia-Romagna, Italy
Last position: 2017-08-21 14:35:26 EDT (2d 10h6m ago)
2017-08-21 20:35:26 CEST local time at Verona, Italy [?]
Altitude: 285 ft
Position ambiguous: Precision reduced at transmitter by 1 digits, position resolution approximately 202.5 yards.
Course: 131°
Device: Yaesu: FT2D (ht)
Last path: I3YBD-7>TU2T8L via qAR,IQ3VO
Positions stored: 313
Other SSIDs: I3YBD I3YBD-1 I3YBD-3 I3YBD-5
Stations near current position of I3YBD-7 - show more
callsign distance last heard - EDT      callsign distance last heard - EDT
145.575-a0.6 miles 320°2017-08-24 00:32:56 IU2GGL1.1 miles 335°2017-08-13 10:33:06
IW3GCR1.4 miles 287°2017-08-21 15:43:00 IK3ORE-101.6 miles 275°2017-08-24 00:13:02
E-101.6 miles 275°2017-08-21 23:58:51 IW3INX-71.8 miles 18°2017-08-22 15:10:17
IW3HV1.9 miles 329°2017-08-23 15:28:07 IZ3ZOL-91.9 miles 335°2017-08-20 12:58:35
IZ3KRL-12.0 miles 43°2017-08-23 11:31:48 IK3PDD-92.5 miles 3°2017-08-22 13:38:47
IZ3SLY-i2.8 miles 23°2017-08-10 10:36:28 IZ3SLY-32.8 miles 23°2017-08-24 00:39:36
IZ3LBC-13.8 miles 340°2017-08-20 07:31:10 IZ3ZMK3.9 miles 221°2017-08-24 00:12:57
IZ2LPW4.0 miles 280°2017-08-19 01:48:28 IZ3KVH-94.2 miles 358°2017-08-07 12:58:01
IK3ORE-64.9 miles 233°2017-08-23 05:35:33 IZ3WWG-56.1 miles 140°2017-07-30 11:27:19
IR3UIW6.6 miles 69°2017-08-24 00:39:34 IU3EEH-56.7 miles 92°2017-07-25 16:05:35
Stations which heard I3YBD-7 directly on radio –
callsign pkts first heard - EDT last heard longest (tx => rx) longest at - EDT
IK2CHZ 45 2017-08-03 04:58:31 2017-08-03 08:41:21 JN55KR > JN45UI 62.3 miles 246° 2017-08-03 08:41:21
IR3BT 60 2017-08-03 03:55:11 2017-08-03 09:06:43 JN55KR > JN56MD 29.6 miles 18° 2017-08-03 06:37:45
IR2AO 42 2017-08-03 04:20:29 2017-08-03 08:41:20 JN55KR > JN45PM 75.2 miles 259° 2017-08-03 04:20:29
IR3AS 3 2017-08-03 05:27:37 2017-08-03 06:27:50 JN55KR > JN56QB 32.1 miles 46° 2017-08-03 06:27:50
IN3RSV 54 2017-08-03 03:45:29 2017-08-03 10:11:56 JN55KR > JN55NV 18.7 miles 48° 2017-08-03 06:57:08
IK2CHZ-11 2 2017-08-03 08:34:07 2017-08-03 08:35:14 JN55KR > JN45UI 62.3 miles 246° 2017-08-03 08:35:14
IK4FMY 2 2017-08-03 05:42:33 2017-08-03 08:48:33 JN55KR > JN54UG 109.5 miles 156° 2017-08-03 08:48:33
IZ4TNX-11 3 2017-08-03 05:22:03 2017-08-03 05:41:06 JN55KR > JN54SM 89.1 miles 158° 2017-08-03 05:22:03
S55UJE-11 5 2017-08-03 04:51:58 2017-08-03 08:48:03 JN55KR > JN76BL 164.8 miles 71° 2017-08-03 06:32:06
IZ4UFQ-10 5 2017-08-03 06:07:14 2017-08-03 08:41:20 JN55KR > JN54QL 90.0 miles 164° 2017-08-03 08:41:20
IZ3NWP-11 6 2017-08-03 05:47:00 2017-08-03 07:36:02 JN55KR > JN55RL 33.8 miles 122° 2017-08-03 07:36:02
IR2Y 1 2017-08-21 04:23:44 2017-08-21 04:23:44 JN55GP > JN55EK 19.0 miles 209° 2017-08-21 04:23:44
IR4BA 4 2017-08-03 04:38:48 2017-08-03 07:17:46 JN55KR > JN54NF 106.0 miles 174° 2017-08-03 04:38:48
IW2GOB-2 1 2017-08-03 04:23:38 2017-08-03 04:23:38 JN55KR > JN45SH 71.7 miles 245° 2017-08-03 04:23:38
IR2S 16 2017-08-03 03:46:27 2017-08-03 10:00:19 JN55KS > JN55DQ 29.6 miles 258° 2017-08-03 10:00:19
IR2CV 19 2017-08-03 04:01:31 2017-08-21 04:21:41 JN55KR > JN55JC 45.9 miles 186° 2017-08-03 04:02:41
IZ2EVE 2 2017-08-03 07:45:22 2017-08-03 07:55:53 JN55KR > JN45JI 102.0 miles 256° 2017-08-03 07:55:53
IR2DD 8 2017-08-03 05:09:53 2017-08-21 04:23:45 JN55KR > JN55GL 24.2 miles 219° 2017-08-03 08:33:44
IQ2CY 2 2017-08-21 04:22:41 2017-08-21 04:23:42 JN55GP > JN55AD 43.6 miles 219° 2017-08-21 04:23:42
IR2UFW 1 2017-08-03 08:26:37 2017-08-03 08:26:37 JN55KR > JN45LI 93.3 miles 255° 2017-08-03 08:26:37
IZ3VIV-15 50 2017-08-03 04:01:35 2017-08-03 09:39:00 JN55KS > JN55PJ 31.9 miles 140° 2017-08-03 09:39:00
IW3FVZ-11 9 2017-08-03 05:20:53 2017-08-03 09:06:42 JN55KR > JN55WH 57.6 miles 121° 2017-08-03 07:46:38
IQ4SC 1 2017-08-03 06:41:01 2017-08-03 06:41:01 JN55KR > JN54IO 78.7 miles 186° 2017-08-03 06:41:01
IR4UCI-11 27 2017-08-03 05:35:43 2017-08-03 09:40:02 JN55KS > JN54MM 85.2 miles 175° 2017-08-03 09:40:02
IU2GOH 4 2017-08-03 05:28:39 2017-08-03 08:04:11 JN55KR > JN55BL 39.6 miles 242° 2017-08-03 08:04:11
IQ3LK-10 16 2017-08-03 03:56:41 2017-08-03 09:26:56 JN55KR > JN56RH 48.3 miles 36° 2017-08-03 04:53:49
IZ4AQM 7 2017-08-03 04:42:05 2017-08-03 09:00:46 JN55KR > JN54TD 117.3 miles 161° 2017-08-03 09:00:46
IQ3VO 119 2017-08-03 03:45:26 2017-08-21 14:35:26 JN55LJ > JN55MQ 19.5 miles 9° 2017-08-21 14:35:26
IR3AO 6 2017-08-03 04:38:48 2017-08-03 10:09:40 JN55KR > JN56WK 68.4 miles 45° 2017-08-03 06:00:31
IZ4GWE 4 2017-08-03 05:39:37 2017-08-03 05:56:58 JN55KR > JN64CK 112.7 miles 144° 2017-08-03 05:39:37
IK3YBX-10 1 2017-08-03 04:38:48 2017-08-03 04:38:48 JN55KR > JN65DM 70.5 miles 103° 2017-08-03 04:38:48
IR3UDX 7 2017-08-03 05:57:00 2017-08-03 09:42:17 JN55KR > JN55MV 14.2 miles 39° 2017-08-03 06:19:46

Only position packets which were originated by the station are shown here. The range statistics show some extra long hops, because some digipeaters do not correctly add themselves to the digipeater path. Please check the raw packets.
About this site
This page shows real-time information collected from the Automatic Position Reporting System Internet network (APRS-IS). APRS is used by amateur (ham) radio operators to transmit real-time position information, weather data, telemetry and messages over the radio. A vehicle equipped with a GPS receiver, a VHF transmitter or HF transceiver and a small computer device called a tracker transmits it's location, speed and course in a small data packet, which is then received by a nearby iGate receiving site which forwards the packet on the Internet. Systems connected to the Internet can send information on the APRS-IS without a radio transmitter, or collect and display information transmitted anywhere in the world.
FAQ · Blog · Discussion group · Linking to aprs.fi · AIS sites · Service status · Database statistics · Advertising on aprs.fi · Technical details · API · Change log · Planned changes · Credits and thanks · Terms Of Service · iPhone/iPad APRS